createdAt,value
2018-02-02T12:41:07.998Z,8
2018-02-02T12:42:55.793Z,5
2018-02-02T12:43:54.436Z,13
2018-02-02T12:44:52.608Z,16
2018-02-02T12:45:56.633Z,18
2018-02-02T12:53:31.754Z,7
2018-02-02T12:54:54.248Z,6
2018-02-02T12:55:52.983Z,6
2018-02-02T12:56:53.051Z,7
2018-02-02T12:57:54.532Z,8
2018-02-02T12:58:53.222Z,14
2018-02-02T12:59:54.809Z,16
2018-02-02T13:00:56.297Z,17
2018-02-02T13:01:54.640Z,18
2018-02-02T13:02:56.042Z,20
2018-02-02T13:03:57.923Z,26
2018-02-02T13:04:57.006Z,26
2018-02-02T13:05:56.799Z,29
2018-02-02T13:06:56.767Z,30
2018-02-02T13:07:57.416Z,33
2018-02-02T13:08:56.841Z,33
2018-02-02T13:09:58.274Z,34
2018-02-02T13:10:57.990Z,35
2018-02-02T13:11:59.235Z,37
2018-02-02T13:13:02.660Z,43
2018-02-02T13:13:59.393Z,43
2018-02-02T13:14:59.772Z,44
2018-02-02T13:16:01.025Z,44
2018-02-02T13:16:59.773Z,45
2018-02-02T13:17:59.983Z,48
2018-02-02T13:19:00.188Z,50
2018-02-02T13:20:00.213Z,54
2018-02-02T13:21:00.430Z,55
2018-02-02T13:22:00.872Z,58
2018-02-02T13:23:04.016Z,58
2018-02-02T13:24:01.983Z,59
2018-02-02T13:25:01.687Z,59
2018-02-02T13:26:01.372Z,63
2018-02-02T13:27:02.075Z,64
2018-02-02T13:28:02.571Z,69
2018-02-02T13:29:02.446Z,71
2018-02-02T13:30:02.899Z,75
2018-02-02T13:31:03.498Z,77
2018-02-02T13:32:04.037Z,80
2018-02-02T13:33:03.986Z,88
2018-02-02T13:34:05.373Z,91
2018-02-02T13:35:05.456Z,96
2018-02-02T13:36:05.736Z,101
2018-02-02T13:37:05.571Z,107
2018-02-02T13:38:07.040Z,107
2018-02-02T13:39:06.526Z,108
2018-02-02T13:40:08.879Z,111
2018-02-02T13:41:12.502Z,113
2018-02-02T13:42:06.941Z,113
2018-02-02T13:43:07.660Z,115
2018-02-02T13:44:09.457Z,116
2018-02-02T13:45:09.846Z,121
2018-02-02T13:46:09.051Z,122
2018-02-02T13:47:09.579Z,124
2018-02-02T13:48:10.244Z,124
2018-02-02T13:49:10.430Z,124
2018-02-02T13:50:09.592Z,124
2018-02-02T13:51:10.234Z,124
2018-02-02T13:52:11.562Z,124
2018-02-02T13:53:10.671Z,125
2018-02-02T13:54:10.964Z,127
2018-02-02T13:55:11.466Z,127
2018-02-02T13:56:12.293Z,129
2018-02-02T13:57:11.979Z,129
2018-02-02T13:58:13.306Z,132
2018-02-02T13:59:12.820Z,134
2018-02-02T14:00:12.642Z,138
2018-02-02T14:01:13.095Z,144
2018-02-02T14:02:14.238Z,149
2018-02-02T14:03:13.643Z,151
2018-02-02T14:04:16.187Z,157
2018-02-02T14:05:14.967Z,159
2018-02-02T14:06:15.003Z,161
2018-02-02T14:07:14.430Z,161
2018-02-02T14:08:16.697Z,163
2018-02-02T14:09:15.898Z,167
2018-02-02T14:10:15.976Z,171
2018-02-02T14:11:16.494Z,171
2018-02-02T14:12:16.781Z,172
2018-02-02T14:13:17.562Z,173
2018-02-02T14:14:17.612Z,178
2018-02-02T14:15:18.145Z,181
2018-02-02T14:16:18.191Z,184
2018-02-02T14:17:18.813Z,190
2018-02-02T14:18:18.540Z,193
2018-02-02T14:19:21.844Z,197
2018-02-02T14:20:19.142Z,200
2018-02-02T14:21:19.092Z,207
2018-02-02T14:22:19.024Z,209
2018-02-02T14:23:19.964Z,211
2018-02-02T14:24:20.776Z,213
2018-02-02T14:25:21.405Z,216
2018-02-02T14:26:21.055Z,219
2018-02-02T14:27:21.536Z,227
2018-02-02T14:28:21.725Z,232
2018-02-02T14:29:22.087Z,238
2018-02-02T14:30:20.990Z,240
2018-02-02T14:31:23.401Z,249
2018-02-02T14:32:23.447Z,257
2018-02-02T14:33:23.517Z,267
2018-02-02T14:34:23.458Z,271
2018-02-02T14:35:24.115Z,284
2018-02-02T14:36:24.076Z,290
2018-02-02T14:37:24.575Z,291
2018-02-02T14:38:25.235Z,291
2018-02-02T14:39:25.435Z,291
2018-02-02T14:40:25.071Z,292
2018-02-02T14:41:25.353Z,297
2018-02-02T14:42:25.551Z,301
2018-02-02T14:43:26.077Z,308
2018-02-02T14:44:26.497Z,317
2018-02-02T14:45:27.196Z,325
